createdAt,value
2018-06-09T00:01:30.907Z,3.8
2018-06-09T00:04:30.822Z,3.8
2018-06-09T00:07:32.220Z,3.8
2018-06-09T00:10:32.189Z,3.8
2018-06-09T00:13:30.905Z,3.8
2018-06-09T00:16:30.707Z,3.8
2018-06-09T00:19:31.344Z,3.8
2018-06-09T00:22:32.205Z,3.8
2018-06-09T00:25:31.523Z,3.8
2018-06-09T00:28:31.048Z,3.8
2018-06-09T00:31:30.726Z,3.8
2018-06-09T00:34:30.849Z,3.8
2018-06-09T00:37:30.968Z,3.8
2018-06-09T00:40:30.925Z,3.8
2018-06-09T00:43:30.254Z,3.8
2018-06-09T00:46:31.101Z,3.8
2018-06-09T00:49:31.794Z,3.8
2018-06-09T00:52:30.188Z,3.8
2018-06-09T00:55:30.092Z,3.8
2018-06-09T00:58:30.168Z,3.8
2018-06-09T01:01:30.069Z,3.8
2018-06-09T01:04:30.594Z,3.8
2018-06-09T01:07:30.105Z,3.8
2018-06-09T01:10:30.117Z,3.8
2018-06-09T01:13:30.251Z,3.8
2018-06-09T01:16:29.988Z,3.8
2018-06-09T01:19:30.163Z,3.8
2018-06-09T01:22:30.192Z,3.8
2018-06-09T01:25:30.236Z,3.8
2018-06-09T01:28:40.107Z,3.8
2018-06-09T01:31:30.212Z,3.8
2018-06-09T01:34:30.220Z,3.8
2018-06-09T01:37:30.238Z,3.8
2018-06-09T01:40:30.173Z,3.8
2018-06-09T01:43:30.344Z,3.8
2018-06-09T01:46:30.169Z,3.8
2018-06-09T01:49:30.162Z,3.8
2018-06-09T01:52:30.149Z,3.8
2018-06-09T01:55:30.154Z,3.8
2018-06-09T01:58:30.143Z,3.8
2018-06-09T02:01:30.143Z,3.8
2018-06-09T02:04:30.280Z,3.8
2018-06-09T02:07:30.307Z,3.8
2018-06-09T02:10:30.156Z,3.8
2018-06-09T02:13:30.325Z,3.8
2018-06-09T02:16:30.167Z,3.8
2018-06-09T02:19:30.266Z,3.8
2018-06-09T02:22:30.250Z,3.8
2018-06-09T02:25:30.185Z,3.8
2018-06-09T02:28:30.193Z,3.8
2018-06-09T02:31:30.390Z,3.8
2018-06-09T02:34:30.275Z,3.8
2018-06-09T02:37:30.311Z,3.8
2018-06-09T02:40:30.425Z,3.8
2018-06-09T02:43:30.540Z,3.8
2018-06-09T02:46:30.789Z,3.8
2018-06-09T02:49:30.446Z,3.8
2018-06-09T02:52:30.395Z,3.8
2018-06-09T02:55:30.488Z,3.8
2018-06-09T02:58:30.581Z,3.8
2018-06-09T03:01:30.409Z,3.9
2018-06-09T03:04:30.435Z,3.9
2018-06-09T03:07:30.754Z,3.9
2018-06-09T03:10:30.494Z,3.9
2018-06-09T03:13:30.669Z,3.9
2018-06-09T03:16:30.270Z,3.9
2018-06-09T03:19:30.477Z,3.9
2018-06-09T03:22:30.771Z,3.9
2018-06-09T03:25:30.525Z,3.9
2018-06-09T03:28:32.853Z,3.9
2018-06-09T03:31:32.604Z,3.9
2018-06-09T03:34:30.458Z,3.9
2018-06-09T03:37:30.458Z,3.9
2018-06-09T03:40:30.162Z,3.9
2018-06-09T03:43:30.162Z,3.9
2018-06-09T03:46:30.056Z,3.9
2018-06-09T03:49:30.235Z,3.9
2018-06-09T03:52:30.093Z,3.9
2018-06-09T03:55:30.209Z,3.9
2018-06-09T03:58:30.135Z,3.9
2018-06-09T04:01:30.157Z,3.9
2018-06-09T04:04:29.897Z,3.9
2018-06-09T04:07:30.239Z,3.9
2018-06-09T04:10:30.053Z,3.9
2018-06-09T04:13:30.088Z,3.9
2018-06-09T04:16:30.243Z,3.9
2018-06-09T04:19:30.165Z,3.9
2018-06-09T04:22:29.998Z,3.9
2018-06-09T04:25:30.040Z,3.9
2018-06-09T04:28:30.149Z,3.9
2018-06-09T04:31:30.157Z,3.9
2018-06-09T04:34:30.101Z,3.9
2018-06-09T04:37:30.158Z,3.9
2018-06-09T04:40:30.027Z,3.9
2018-06-09T04:43:30.154Z,3.9
2018-06-09T04:46:30.274Z,3.9
2018-06-09T04:49:30.090Z,3.9
2018-06-09T04:52:30.207Z,3.9
2018-06-09T04:55:46.710Z,3.9
2018-06-09T04:58:30.830Z,3.9
2018-06-09T05:01:30.145Z,4
2018-06-09T05:04:30.029Z,4
2018-06-09T05:07:30.181Z,4
2018-06-09T05:10:30.202Z,4
2018-06-09T05:13:30.063Z,4
2018-06-09T05:16:30.101Z,4
2018-06-09T05:19:30.180Z,4
2018-06-09T05:22:30.136Z,4
2018-06-09T05:25:30.110Z,4
2018-06-09T05:28:30.032Z,4
2018-06-09T05:31:29.999Z,4
2018-06-09T05:34:30.084Z,4
2018-06-09T05:37:30.171Z,4
2018-06-09T05:40:30.179Z,4
2018-06-09T05:43:30.121Z,4
2018-06-09T05:46:29.965Z,4
2018-06-09T05:49:31.308Z,4
2018-06-09T05:52:30.199Z,4
2018-06-09T05:55:30.367Z,4
2018-06-09T05:58:30.222Z,4
2018-06-09T06:01:30.118Z,4
2018-06-09T06:04:30.150Z,4
2018-06-09T06:07:30.143Z,4
2018-06-09T06:10:30.156Z,4
2018-06-09T06:13:30.227Z,4
2018-06-09T06:16:30.093Z,4
2018-06-09T06:19:30.379Z,4
2018-06-09T06:22:30.146Z,4
2018-06-09T06:25:30.288Z,4
2018-06-09T06:28:30.200Z,4
2018-06-09T06:31:29.947Z,4
2018-06-09T06:34:30.016Z,4
2018-06-09T06:37:30.181Z,4
2018-06-09T06:40:30.089Z,4
2018-06-09T06:43:30.110Z,4
2018-06-09T06:46:30.029Z,4
2018-06-09T06:49:30.071Z,4
2018-06-09T06:52:30.071Z,4
2018-06-09T06:55:30.220Z,4
2018-06-09T06:58:30.217Z,4
2018-06-09T07:01:30.063Z,4.1
2018-06-09T07:04:30.050Z,4.1
2018-06-09T07:07:30.189Z,4.1
2018-06-09T07:10:30.129Z,4.1
2018-06-09T07:13:30.654Z,4.1
2018-06-09T07:16:30.141Z,4.1
2018-06-09T07:19:30.109Z,4.1
2018-06-09T07:22:30.103Z,4.1
2018-06-09T07:25:30.245Z,4.1
2018-06-09T07:28:30.155Z,4.1
2018-06-09T07:31:29.974Z,4.1
2018-06-09T07:34:30.072Z,4.1
2018-06-09T07:37:30.044Z,4.1
2018-06-09T07:40:30.101Z,4.1
2018-06-09T07:43:30.006Z,4.1
2018-06-09T07:46:30.066Z,4.1
2018-06-09T07:49:30.204Z,4.1
2018-06-09T07:52:30.046Z,4.1
2018-06-09T07:55:30.085Z,4.1
2018-06-09T07:58:30.081Z,4.1
2018-06-09T08:01:30.142Z,4.1
2018-06-09T08:04:30.174Z,4.1
2018-06-09T08:07:30.066Z,4.1
2018-06-09T08:10:30.195Z,4.1
2018-06-09T08:13:30.269Z,4.1
2018-06-09T08:16:30.032Z,4.1
2018-06-09T08:19:31.127Z,4.1
2018-06-09T08:22:30.095Z,4.1
2018-06-09T08:25:30.038Z,4.1
2018-06-09T08:28:30.075Z,4.1
2018-06-09T08:31:30.185Z,4.1
2018-06-09T08:34:30.307Z,4.1
2018-06-09T08:37:30.193Z,4.1
2018-06-09T08:40:30.004Z,4.1
2018-06-09T08:43:30.252Z,4.1
2018-06-09T08:46:30.063Z,4.1
2018-06-09T08:49:29.876Z,4.1
2018-06-09T08:52:30.080Z,4.1
2018-06-09T08:55:30.154Z,4.1
2018-06-09T08:58:29.978Z,4.1
2018-06-09T09:01:30.422Z,4.3
2018-06-09T09:04:30.196Z,4.3
2018-06-09T09:07:29.942Z,4.3
2018-06-09T09:10:29.991Z,4.3
2018-06-09T09:13:29.960Z,4.3
2018-06-09T09:16:30.728Z,4.3
2018-06-09T09:19:30.112Z,4.3
2018-06-09T09:22:30.060Z,4.3
2018-06-09T09:25:30.301Z,4.3
2018-06-09T09:28:30.027Z,4.3
2018-06-09T09:31:30.234Z,4.3
2018-06-09T09:34:30.125Z,4.3
2018-06-09T09:37:29.912Z,4.3
2018-06-09T09:40:30.281Z,4.3
2018-06-09T09:43:30.009Z,4.3
2018-06-09T09:46:29.932Z,4.3
2018-06-09T09:49:29.994Z,4.3
2018-06-09T09:52:30.044Z,4.3
2018-06-09T09:55:30.045Z,4.3
2018-06-09T09:58:30.217Z,4.3
2018-06-09T10:01:30.100Z,4.5
2018-06-09T10:04:30.043Z,4.5
2018-06-09T10:07:30.030Z,4.5
2018-06-09T10:10:30.125Z,4.5
2018-06-09T10:13:30.055Z,4.5
2018-06-09T10:16:29.926Z,4.5
2018-06-09T10:19:29.955Z,4.5
2018-06-09T10:22:29.990Z,4.5
2018-06-09T10:25:29.958Z,4.5
2018-06-09T10:28:29.929Z,4.5
2018-06-09T10:31:30.026Z,4.5
2018-06-09T10:34:30.256Z,4.5
2018-06-09T10:37:30.077Z,4.5
2018-06-09T10:40:30.401Z,4.5
2018-06-09T10:43:30.068Z,4.5
2018-06-09T10:46:30.080Z,4.5
2018-06-09T10:49:29.906Z,4.5
2018-06-09T10:52:30.171Z,4.5
2018-06-09T10:55:29.868Z,4.5
2018-06-09T10:58:30.102Z,4.5
2018-06-09T11:01:30.103Z,4.8
2018-06-09T11:04:30.187Z,4.8
2018-06-09T11:07:30.325Z,4.8
2018-06-09T11:10:30.205Z,4.8
2018-06-09T11:13:30.003Z,4.8
2018-06-09T11:16:30.096Z,4.8
2018-06-09T11:19:29.924Z,4.8
2018-06-09T11:22:29.927Z,4.8
2018-06-09T11:25:30.165Z,4.8
2018-06-09T11:28:29.917Z,4.8
2018-06-09T11:31:29.881Z,4.8
2018-06-09T11:34:29.998Z,4.8
2018-06-09T11:37:30.112Z,4.8
2018-06-09T11:40:29.936Z,4.8
2018-06-09T11:43:30.242Z,4.8
2018-06-09T11:46:30.063Z,4.8
2018-06-09T11:49:29.974Z,4.8
2018-06-09T11:52:29.971Z,4.8
2018-06-09T11:55:29.999Z,4.8
2018-06-09T11:58:30.108Z,4.8
2018-06-09T12:01:29.987Z,4.9
2018-06-09T12:04:30.180Z,4.9
2018-06-09T12:07:29.998Z,4.9
2018-06-09T12:10:30.220Z,4.9
2018-06-09T12:13:29.987Z,4.9
2018-06-09T12:16:30.099Z,4.9
2018-06-09T12:19:30.221Z,4.9
2018-06-09T12:22:39.966Z,4.9
2018-06-09T12:25:30.197Z,4.9
2018-06-09T12:28:30.138Z,4.9
2018-06-09T12:31:30.122Z,4.9
2018-06-09T12:34:30.034Z,4.9
2018-06-09T12:37:30.034Z,4.9
2018-06-09T12:40:30.067Z,4.9
2018-06-09T14:01:22.196Z,7.7
2018-06-09T14:04:22.285Z,7.7
2018-06-09T14:07:22.373Z,7.7
2018-06-09T14:10:22.299Z,7.7
2018-06-09T14:13:23.820Z,7.7
2018-06-09T14:16:22.288Z,7.7
2018-06-09T14:19:22.132Z,7.7
2018-06-09T14:22:22.535Z,7.7
2018-06-09T14:25:22.119Z,7.7
2018-06-09T14:28:22.241Z,7.7
2018-06-09T14:31:22.378Z,7.7
2018-06-09T14:34:22.462Z,7.7
2018-06-09T14:37:22.226Z,7.7
2018-06-09T14:40:22.243Z,7.7
2018-06-09T14:43:22.419Z,7.7
2018-06-09T14:46:22.173Z,7.7
2018-06-09T14:49:22.362Z,7.7
2018-06-09T14:52:22.353Z,7.7
2018-06-09T14:55:22.217Z,7.7
2018-06-09T14:58:22.337Z,7.7
2018-06-09T15:01:22.372Z,7
2018-06-09T15:04:22.266Z,7
2018-06-09T15:07:22.232Z,7
2018-06-09T15:10:22.373Z,7
2018-06-09T15:13:22.159Z,7
2018-06-09T15:16:22.369Z,7
2018-06-09T15:19:22.189Z,7
2018-06-09T15:22:22.321Z,7
2018-06-09T15:25:22.271Z,7
2018-06-09T15:28:22.223Z,7
2018-06-09T15:31:22.177Z,7
2018-06-09T15:34:22.181Z,7
2018-06-09T16:02:31.128Z,9.8
2018-06-09T16:05:31.366Z,9.8
2018-06-09T16:08:31.031Z,9.8
2018-06-09T16:11:31.404Z,9.8
2018-06-09T16:14:31.294Z,9.8
2018-06-09T16:17:31.214Z,9.8
2018-06-09T16:20:31.052Z,9.8
2018-06-09T16:23:31.197Z,9.8
2018-06-09T16:26:31.300Z,9.8
2018-06-09T16:29:32.215Z,9.8
2018-06-09T16:32:31.091Z,9.8
2018-06-09T16:35:31.320Z,9.8
2018-06-09T16:38:31.728Z,9.8
2018-06-09T16:41:31.122Z,9.8
2018-06-09T16:44:31.499Z,9.8
2018-06-09T16:47:31.197Z,9.8
2018-06-09T16:50:31.349Z,9.8
2018-06-09T16:53:31.347Z,9.8
2018-06-09T16:56:31.377Z,9.8
2018-06-09T16:59:31.068Z,9.8
2018-06-09T17:02:31.289Z,8.5
2018-06-09T17:05:31.221Z,8.5
2018-06-09T17:08:31.124Z,8.5
2018-06-09T17:11:31.207Z,8.5
2018-06-09T17:14:31.304Z,8.5
2018-06-09T17:17:31.237Z,8.5
2018-06-09T17:20:31.231Z,8.5
2018-06-09T17:23:31.312Z,8.5
2018-06-09T17:26:31.264Z,8.5
2018-06-09T17:29:31.144Z,8.5
2018-06-09T17:32:31.153Z,8.5
2018-06-09T17:35:31.229Z,8.5
2018-06-09T17:38:31.228Z,8.5
2018-06-09T17:41:31.252Z,8.5
2018-06-09T17:44:31.278Z,8.5
2018-06-09T17:47:31.141Z,8.5
2018-06-09T17:50:31.160Z,8.5
2018-06-09T17:53:31.177Z,8.5
2018-06-09T17:56:31.560Z,8.5
2018-06-09T17:59:31.247Z,8.5
2018-06-09T18:02:31.106Z,7.6
2018-06-09T18:05:31.079Z,7.6
2018-06-09T18:08:31.081Z,7.6
2018-06-09T18:11:31.118Z,7.6
2018-06-09T18:14:31.265Z,7.6
2018-06-09T18:17:31.016Z,7.6
2018-06-09T18:20:31.115Z,7.6
2018-06-09T18:23:31.320Z,7.6
2018-06-09T18:26:31.901Z,7.6
2018-06-09T18:29:31.097Z,7.6
2018-06-09T18:32:31.348Z,7.6
2018-06-09T18:35:31.212Z,7.6
2018-06-09T18:38:31.124Z,7.6
2018-06-09T18:41:31.206Z,7.6
2018-06-09T18:44:31.345Z,7.6
2018-06-09T18:47:31.331Z,7.6
2018-06-09T18:50:31.165Z,7.6
2018-06-09T18:53:31.115Z,7.6
2018-06-09T18:56:31.515Z,7.6
2018-06-09T18:59:31.255Z,7.6
2018-06-09T19:02:31.325Z,7
2018-06-09T19:05:31.311Z,7
2018-06-09T19:08:31.392Z,7
2018-06-09T19:11:31.447Z,7
2018-06-09T19:14:31.280Z,7
2018-06-09T19:17:31.151Z,7
2018-06-09T19:20:31.402Z,7
2018-06-09T19:23:31.288Z,7
2018-06-09T19:26:31.189Z,7
2018-06-09T19:29:31.397Z,7
2018-06-09T19:32:31.274Z,7
2018-06-09T19:35:31.296Z,7
2018-06-09T19:38:31.268Z,7
2018-06-09T19:41:31.272Z,7
2018-06-09T19:44:31.357Z,7
2018-06-09T19:47:31.279Z,7
2018-06-09T19:50:31.343Z,7
2018-06-09T19:53:31.166Z,7
2018-06-09T19:56:31.133Z,7
2018-06-09T19:59:31.253Z,7
2018-06-09T20:02:31.298Z,7.1
2018-06-09T20:05:31.403Z,7.1
2018-06-09T20:08:31.277Z,7.1
2018-06-09T20:11:31.180Z,7.1
2018-06-09T20:14:31.288Z,7.1
2018-06-09T20:17:31.444Z,7.1
2018-06-09T20:20:31.332Z,7.1
2018-06-09T20:23:31.193Z,7.1
2018-06-09T20:26:31.269Z,7.1
2018-06-09T20:29:31.300Z,7.1
2018-06-09T20:32:31.198Z,7.1
2018-06-09T20:35:31.325Z,7.1
2018-06-09T20:38:31.069Z,7.1
2018-06-09T20:41:31.164Z,7.1
2018-06-09T20:44:31.324Z,7.1
2018-06-09T20:47:31.121Z,7.1
2018-06-09T20:50:31.220Z,7.1
2018-06-09T20:53:31.321Z,7.1
2018-06-09T20:56:31.241Z,7.1
2018-06-09T20:59:31.180Z,7.1
2018-06-09T21:02:31.232Z,7.2
2018-06-09T21:05:31.354Z,7.2
2018-06-09T21:08:31.118Z,7.2
2018-06-09T21:11:31.252Z,7.2
2018-06-09T21:14:31.223Z,7.2
2018-06-09T21:17:31.073Z,7.2
2018-06-09T21:20:31.212Z,7.2
2018-06-09T21:23:31.397Z,7.2
2018-06-09T21:26:31.837Z,7.2
2018-06-09T21:29:31.136Z,7.2
2018-06-09T21:32:32.363Z,7.2
2018-06-09T21:35:31.186Z,7.2
2018-06-09T21:38:31.230Z,7.2
2018-06-09T21:41:31.485Z,7.2
2018-06-09T21:44:31.066Z,7.2
2018-06-09T21:47:31.178Z,7.2
2018-06-09T21:50:31.296Z,7.2
2018-06-09T21:53:31.443Z,7.2
2018-06-09T21:56:31.282Z,7.2
2018-06-09T21:59:31.315Z,7.2
2018-06-09T22:02:31.251Z,7.1
2018-06-09T22:05:31.115Z,7.1
2018-06-09T22:08:31.206Z,7.1
2018-06-09T22:11:31.250Z,7.1
2018-06-09T22:14:31.266Z,7.1
2018-06-09T22:17:31.347Z,7.1
2018-06-09T22:20:31.178Z,7.1
2018-06-09T22:23:31.166Z,7.1
2018-06-09T22:26:31.319Z,7.1
2018-06-09T22:29:31.343Z,7.1
2018-06-09T22:32:31.303Z,7.1
2018-06-09T22:35:41.583Z,7.1
2018-06-09T22:38:31.275Z,7.1
2018-06-09T22:41:31.197Z,7.1
2018-06-09T22:44:31.187Z,7.1
2018-06-09T22:47:31.187Z,7.1
2018-06-09T22:50:31.392Z,7.1
2018-06-09T22:53:31.244Z,7.1
2018-06-09T22:56:31.432Z,7.1
2018-06-09T22:59:31.253Z,7.1
2018-06-09T23:02:31.310Z,6.9
2018-06-09T23:05:31.221Z,6.9
2018-06-09T23:08:31.175Z,6.9
2018-06-09T23:11:31.378Z,6.9
2018-06-09T23:14:31.157Z,6.9
2018-06-09T23:17:31.438Z,6.9
2018-06-09T23:20:31.128Z,6.9
2018-06-09T23:23:31.270Z,6.9
2018-06-09T23:26:31.227Z,6.9
2018-06-09T23:29:31.172Z,6.9
2018-06-09T23:32:31.291Z,6.9
2018-06-09T23:35:31.180Z,6.9
2018-06-09T23:38:31.163Z,6.9
2018-06-09T23:41:31.301Z,6.9
2018-06-09T23:44:31.307Z,6.9
2018-06-09T23:47:31.322Z,6.9
2018-06-09T23:50:31.081Z,6.9
2018-06-09T23:53:31.305Z,6.9
2018-06-09T23:56:31.149Z,6.9
2018-06-09T23:59:31.210Z,6.9
